sensor_id;sensor_type;location;lat;lon;timestamp;temperature;humidity
67005;HTU21D;53920;51.094;5.902;2023-07-20T00:01:24;19.21;65.46
67005;HTU21D;53920;51.094;5.902;2023-07-20T00:03:50;19.20;65.53
67005;HTU21D;53920;51.094;5.902;2023-07-20T00:06:21;19.26;65.50
67005;HTU21D;53920;51.094;5.902;2023-07-20T00:08:48;19.33;65.31
67005;HTU21D;53920;51.094;5.902;2023-07-20T00:11:13;19.40;65.18
67005;HTU21D;53920;51.094;5.902;2023-07-20T00:13:40;19.41;65.21
67005;HTU21D;53920;51.094;5.902;2023-07-20T00:16:07;19.39;65.28
67005;HTU21D;53920;51.094;5.902;2023-07-20T00:18:33;19.32;65.45
67005;HTU21D;53920;51.094;5.902;2023-07-20T00:20:59;19.23;65.64
67005;HTU21D;53920;51.094;5.902;2023-07-20T00:23:25;19.18;65.83
67005;HTU21D;53920;51.094;5.902;2023-07-20T00:25:51;19.12;66.02
67005;HTU21D;53920;51.094;5.902;2023-07-20T00:28:17;19.05;66.24
67005;HTU21D;53920;51.094;5.902;2023-07-20T00:30:43;18.98;66.52
67005;HTU21D;53920;51.094;5.902;2023-07-20T00:33:16;18.94;66.71
67005;HTU21D;53920;51.094;5.902;2023-07-20T00:35:42;18.91;66.88
67005;HTU21D;53920;51.094;5.902;2023-07-20T00:38:07;18.73;67.39
67005;HTU21D;53920;51.094;5.902;2023-07-20T00:40:41;18.57;68.04
67005;HTU21D;53920;51.094;5.902;2023-07-20T00:43:08;18.42;68.62
67005;HTU21D;53920;51.094;5.902;2023-07-20T00:45:34;18.27;69.25
67005;HTU21D;53920;51.094;5.902;2023-07-20T00:48:04;18.22;69.52
67005;HTU21D;53920;51.094;5.902;2023-07-20T00:50:32;18.14;69.87
67005;HTU21D;53920;51.094;5.902;2023-07-20T00:52:59;18.07;70.20
67005;HTU21D;53920;51.094;5.902;2023-07-20T00:55:26;18.08;70.26
67005;HTU21D;53920;51.094;5.902;2023-07-20T00:57:53;18.08;70.32
67005;HTU21D;53920;51.094;5.902;2023-07-20T01:00:20;18.07;70.44
67005;HTU21D;53920;51.094;5.902;2023-07-20T01:02:46;18.09;70.44
67005;HTU21D;53920;51.094;5.902;2023-07-20T01:05:13;18.10;70.43
67005;HTU21D;53920;51.094;5.902;2023-07-20T01:07:52;18.11;70.42
67005;HTU21D;53920;51.094;5.902;2023-07-20T01:10:31;18.12;70.39
67005;HTU21D;53920;51.094;5.902;2023-07-20T01:13:00;18.15;70.28
67005;HTU21D;53920;51.094;5.902;2023-07-20T01:15:27;18.27;69.99
67005;HTU21D;53920;51.094;5.902;2023-07-20T01:17:53;18.19;70.21
67005;HTU21D;53920;51.094;5.902;2023-07-20T01:20:23;18.19;70.28
67005;HTU21D;53920;51.094;5.902;2023-07-20T01:31:38;18.56;69.66
67005;HTU21D;53920;51.094;5.902;2023-07-20T01:34:08;18.70;69.30
67005;HTU21D;53920;51.094;5.902;2023-07-20T01:36:37;18.83;68.97
67005;HTU21D;53920;51.094;5.902;2023-07-20T01:39:05;18.94;68.65
67005;HTU21D;53920;51.094;5.902;2023-07-20T01:41:32;18.95;68.53
67005;HTU21D;53920;51.094;5.902;2023-07-20T01:43:58;18.88;68.71
67005;HTU21D;53920;51.094;5.902;2023-07-20T01:46:27;18.71;69.14
67005;HTU21D;53920;51.094;5.902;2023-07-20T01:48:54;18.57;69.56
67005;HTU21D;53920;51.094;5.902;2023-07-20T01:51:20;18.48;69.95
67005;HTU21D;53920;51.094;5.902;2023-07-20T01:53:48;18.44;70.09
67005;HTU21D;53920;51.094;5.902;2023-07-20T01:56:14;18.41;70.17
67005;HTU21D;53920;51.094;5.902;2023-07-20T01:58:40;18.33;70.40
67005;HTU21D;53920;51.094;5.902;2023-07-20T02:01:05;18.25;70.62
67005;HTU21D;53920;51.094;5.902;2023-07-20T02:03:31;18.19;70.87
67005;HTU21D;53920;51.094;5.902;2023-07-20T02:05:57;18.19;70.84
67005;HTU21D;53920;51.094;5.902;2023-07-20T02:08:25;18.13;70.91
67005;HTU21D;53920;51.094;5.902;2023-07-20T02:10:51;18.08;71.03
67005;HTU21D;53920;51.094;5.902;2023-07-20T02:13:17;18.03;71.25
67005;HTU21D;53920;51.094;5.902;2023-07-20T02:15:44;18.03;71.28
67005;HTU21D;53920;51.094;5.902;2023-07-20T02:18:10;17.94;71.51
67005;HTU21D;53920;51.094;5.902;2023-07-20T02:20:36;17.89;71.52
67005;HTU21D;53920;51.094;5.902;2023-07-20T02:23:02;17.81;71.74
67005;HTU21D;53920;51.094;5.902;2023-07-20T02:25:28;17.76;71.87
67005;HTU21D;53920;51.094;5.902;2023-07-20T02:27:56;17.67;72.09
67005;HTU21D;53920;51.094;5.902;2023-07-20T02:30:22;17.65;72.10
67005;HTU21D;53920;51.094;5.902;2023-07-20T02:32:48;17.64;72.15
67005;HTU21D;53920;51.094;5.902;2023-07-20T02:35:15;17.63;72.17
67005;HTU21D;53920;51.094;5.902;2023-07-20T02:37:41;17.64;72.09
67005;HTU21D;53920;51.094;5.902;2023-07-20T02:40:08;17.62;72.14
67005;HTU21D;53920;51.094;5.902;2023-07-20T02:42:35;17.58;72.17
67005;HTU21D;53920;51.094;5.902;2023-07-20T02:45:02;17.59;72.25
67005;HTU21D;53920;51.094;5.902;2023-07-20T02:47:30;17.67;72.07
67005;HTU21D;53920;51.094;5.902;2023-07-20T02:49:57;17.81;71.71
67005;HTU21D;53920;51.094;5.902;2023-07-20T02:52:23;17.93;71.33
67005;HTU21D;53920;51.094;5.902;2023-07-20T02:54:49;18.05;71.02
67005;HTU21D;53920;51.094;5.902;2023-07-20T02:57:15;18.12;70.77
67005;HTU21D;53920;51.094;5.902;2023-07-20T02:59:41;18.22;70.43
67005;HTU21D;53920;51.094;5.902;2023-07-20T03:02:07;18.28;70.22
67005;HTU21D;53920;51.094;5.902;2023-07-20T03:04:36;18.29;70.16
67005;HTU21D;53920;51.094;5.902;2023-07-20T03:07:05;18.30;70.09
67005;HTU21D;53920;51.094;5.902;2023-07-20T03:09:31;18.34;69.97
67005;HTU21D;53920;51.094;5.902;2023-07-20T03:11:56;18.41;69.71
67005;HTU21D;53920;51.094;5.902;2023-07-20T03:14:22;18.48;69.52
67005;HTU21D;53920;51.094;5.902;2023-07-20T03:16:50;18.56;69.23
67005;HTU21D;53920;51.094;5.902;2023-07-20T03:19:16;18.58;69.10
67005;HTU21D;53920;51.094;5.902;2023-07-20T03:21:42;18.62;69.04
67005;HTU21D;53920;51.094;5.902;2023-07-20T03:24:09;18.65;68.94
67005;HTU21D;53920;51.094;5.902;2023-07-20T03:26:35;18.69;68.76
67005;HTU21D;53920;51.094;5.902;2023-07-20T03:29:03;18.70;68.71
67005;HTU21D;53920;51.094;5.902;2023-07-20T03:31:29;18.70;68.71
67005;HTU21D;53920;51.094;5.902;2023-07-20T03:33:55;18.71;68.68
67005;HTU21D;53920;51.094;5.902;2023-07-20T03:36:23;18.65;68.75
67005;HTU21D;53920;51.094;5.902;2023-07-20T03:38:49;18.58;68.88
67005;HTU21D;53920;51.094;5.902;2023-07-20T03:41:15;18.55;69.00
67005;HTU21D;53920;51.094;5.902;2023-07-20T03:43:42;18.56;69.00
67005;HTU21D;53920;51.094;5.902;2023-07-20T03:46:08;18.55;69.00
67005;HTU21D;53920;51.094;5.902;2023-07-20T03:48:34;18.56;69.02
67005;HTU21D;53920;51.094;5.902;2023-07-20T03:51:00;18.58;69.02
67005;HTU21D;53920;51.094;5.902;2023-07-20T03:53:27;18.58;68.96
67005;HTU21D;53920;51.094;5.902;2023-07-20T03:55:53;18.53;69.07
67005;HTU21D;53920;51.094;5.902;2023-07-20T03:58:20;18.50;69.19
67005;HTU21D;53920;51.094;5.902;2023-07-20T04:00:51;18.49;69.31
67005;HTU21D;53920;51.094;5.902;2023-07-20T04:03:21;18.50;69.24
67005;HTU21D;53920;51.094;5.902;2023-07-20T04:05:50;18.47;69.33
67005;HTU21D;53920;51.094;5.902;2023-07-20T04:08:17;18.44;69.45
67005;HTU21D;53920;51.094;5.902;2023-07-20T04:10:43;18.46;69.45
67005;HTU21D;53920;51.094;5.902;2023-07-20T04:13:10;18.46;69.45
67005;HTU21D;53920;51.094;5.902;2023-07-20T04:15:36;18.43;69.49
67005;HTU21D;53920;51.094;5.902;2023-07-20T04:18:02;18.50;69.45
67005;HTU21D;53920;51.094;5.902;2023-07-20T04:20:28;18.57;69.28
67005;HTU21D;53920;51.094;5.902;2023-07-20T04:22:54;18.58;69.16
67005;HTU21D;53920;51.094;5.902;2023-07-20T04:25:21;18.62;69.10
67005;HTU21D;53920;51.094;5.902;2023-07-20T04:27:47;18.55;69.29
67005;HTU21D;53920;51.094;5.902;2023-07-20T04:30:13;18.56;69.35
67005;HTU21D;53920;51.094;5.902;2023-07-20T04:32:41;18.58;69.33
67005;HTU21D;53920;51.094;5.902;2023-07-20T04:35:16;18.59;69.33
67005;HTU21D;53920;51.094;5.902;2023-07-20T04:37:42;18.64;69.33
67005;HTU21D;53920;51.094;5.902;2023-07-20T04:40:15;18.61;69.31
67005;HTU21D;53920;51.094;5.902;2023-07-20T04:42:41;18.59;69.30
67005;HTU21D;53920;51.094;5.902;2023-07-20T04:45:08;18.62;69.25
67005;HTU21D;53920;51.094;5.902;2023-07-20T04:47:34;18.58;69.31
67005;HTU21D;53920;51.094;5.902;2023-07-20T04:50:01;18.54;69.51
67005;HTU21D;53920;51.094;5.902;2023-07-20T04:52:27;18.54;69.57
67005;HTU21D;53920;51.094;5.902;2023-07-20T04:54:53;18.62;69.51
67005;HTU21D;53920;51.094;5.902;2023-07-20T04:57:19;18.74;69.23
67005;HTU21D;53920;51.094;5.902;2023-07-20T04:59:48;18.84;68.93
67005;HTU21D;53920;51.094;5.902;2023-07-20T05:02:14;18.87;68.78
67005;HTU21D;53920;51.094;5.902;2023-07-20T05:04:39;18.91;68.73
67005;HTU21D;53920;51.094;5.902;2023-07-20T05:07:06;18.91;68.60
67005;HTU21D;53920;51.094;5.902;2023-07-20T05:09:32;18.89;68.69
67005;HTU21D;53920;51.094;5.902;2023-07-20T05:11:58;18.84;68.78
67005;HTU21D;53920;51.094;5.902;2023-07-20T05:14:25;18.82;68.88
67005;HTU21D;53920;51.094;5.902;2023-07-20T05:16:51;18.95;68.68
67005;HTU21D;53920;51.094;5.902;2023-07-20T05:19:18;19.02;68.55
67005;HTU21D;53920;51.094;5.902;2023-07-20T05:21:44;19.13;68.33
67005;HTU21D;53920;51.094;5.902;2023-07-20T05:24:10;19.18;68.04
67005;HTU21D;53920;51.094;5.902;2023-07-20T05:26:36;19.22;67.78
67005;HTU21D;53920;51.094;5.902;2023-07-20T05:29:02;19.28;67.68
67005;HTU21D;53920;51.094;5.902;2023-07-20T05:31:27;19.41;67.36
67005;HTU21D;53920;51.094;5.902;2023-07-20T05:33:56;19.52;67.00
67005;HTU21D;53920;51.094;5.902;2023-07-20T05:36:21;19.67;66.53
67005;HTU21D;53920;51.094;5.902;2023-07-20T05:38:47;19.80;66.06
67005;HTU21D;53920;51.094;5.902;2023-07-20T05:41:15;19.85;65.85
67005;HTU21D;53920;51.094;5.902;2023-07-20T05:43:40;19.88;65.66
67005;HTU21D;53920;51.094;5.902;2023-07-20T05:46:07;19.92;65.37
67005;HTU21D;53920;51.094;5.902;2023-07-20T05:48:33;19.99;64.93
67005;HTU21D;53920;51.094;5.902;2023-07-20T05:50:59;20.20;64.38
67005;HTU21D;53920;51.094;5.902;2023-07-20T05:53:25;20.44;63.77
67005;HTU21D;53920;51.094;5.902;2023-07-20T05:55:54;20.72;62.67
67005;HTU21D;53920;51.094;5.902;2023-07-20T05:58:21;20.87;61.60
67005;HTU21D;53920;51.094;5.902;2023-07-20T06:00:48;21.02;60.75
67005;HTU21D;53920;51.094;5.902;2023-07-20T06:03:15;21.20;59.99
67005;HTU21D;53920;51.094;5.902;2023-07-20T06:05:43;21.42;59.21
67005;HTU21D;53920;51.094;5.902;2023-07-20T06:08:08;21.68;58.44
67005;HTU21D;53920;51.094;5.902;2023-07-20T06:10:34;21.95;57.26
67005;HTU21D;53920;51.094;5.902;2023-07-20T06:13:00;22.10;56.75
67005;HTU21D;53920;51.094;5.902;2023-07-20T06:15:30;21.97;57.00
67005;HTU21D;53920;51.094;5.902;2023-07-20T06:17:57;21.55;58.17
67005;HTU21D;53920;51.094;5.902;2023-07-20T06:20:24;21.18;59.19
67005;HTU21D;53920;51.094;5.902;2023-07-20T06:22:50;20.87;60.18
67005;HTU21D;53920;51.094;5.902;2023-07-20T06:25:16;20.71;60.78
67005;HTU21D;53920;51.094;5.902;2023-07-20T06:27:43;20.69;60.93
67005;HTU21D;53920;51.094;5.902;2023-07-20T06:30:10;20.55;61.29
67005;HTU21D;53920;51.094;5.902;2023-07-20T06:32:36;20.30;62.00
67005;HTU21D;53920;51.094;5.902;2023-07-20T06:35:02;20.09;62.56
67005;HTU21D;53920;51.094;5.902;2023-07-20T06:37:27;19.92;63.05
67005;HTU21D;53920;51.094;5.902;2023-07-20T06:39:53;19.81;63.41
67005;HTU21D;53920;51.094;5.902;2023-07-20T06:42:19;19.72;63.66
67005;HTU21D;53920;51.094;5.902;2023-07-20T06:44:45;19.74;63.71
67005;HTU21D;53920;51.094;5.902;2023-07-20T06:47:11;19.82;63.59
67005;HTU21D;53920;51.094;5.902;2023-07-20T06:49:37;20.06;63.03
67005;HTU21D;53920;51.094;5.902;2023-07-20T06:52:04;20.45;61.87
67005;HTU21D;53920;51.094;5.902;2023-07-20T06:54:32;20.90;60.73
67005;HTU21D;53920;51.094;5.902;2023-07-20T06:56:58;21.24;59.86
67005;HTU21D;53920;51.094;5.902;2023-07-20T06:59:23;21.36;59.22
67005;HTU21D;53920;51.094;5.902;2023-07-20T07:01:50;21.25;58.98
67005;HTU21D;53920;51.094;5.902;2023-07-20T07:04:15;21.15;58.76
67005;HTU21D;53920;51.094;5.902;2023-07-20T07:06:41;21.10;58.54
67005;HTU21D;53920;51.094;5.902;2023-07-20T07:09:07;21.11;58.73
67005;HTU21D;53920;51.094;5.902;2023-07-20T07:11:34;21.28;58.48
67005;HTU21D;53920;51.094;5.902;2023-07-20T07:14:00;21.49;58.14
67005;HTU21D;53920;51.094;5.902;2023-07-20T07:16:25;21.81;56.86
67005;HTU21D;53920;51.094;5.902;2023-07-20T07:18:51;22.58;54.62
67005;HTU21D;53920;51.094;5.902;2023-07-20T07:21:18;24.38;48.74
67005;HTU21D;53920;51.094;5.902;2023-07-20T07:23:45;26.07;43.62
67005;HTU21D;53920;51.094;5.902;2023-07-20T07:26:11;27.32;40.20
67005;HTU21D;53920;51.094;5.902;2023-07-20T07:28:37;28.33;37.80
67005;HTU21D;53920;51.094;5.902;2023-07-20T07:31:07;29.38;35.56
67005;HTU21D;53920;51.094;5.902;2023-07-20T07:33:33;30.65;32.82
67005;HTU21D;53920;51.094;5.902;2023-07-20T07:36:00;31.27;31.24
67005;HTU21D;53920;51.094;5.902;2023-07-20T07:38:26;31.04;31.60
67005;HTU21D;53920;51.094;5.902;2023-07-20T07:40:52;29.90;34.05
67005;HTU21D;53920;51.094;5.902;2023-07-20T07:43:17;29.91;33.95
67005;HTU21D;53920;51.094;5.902;2023-07-20T07:45:43;30.44;32.80
67005;HTU21D;53920;51.094;5.902;2023-07-20T07:48:09;31.34;31.03
67005;HTU21D;53920;51.094;5.902;2023-07-20T07:50:38;31.16;31.32
67005;HTU21D;53920;51.094;5.902;2023-07-20T07:53:07;30.64;32.06
67005;HTU21D;53920;51.094;5.902;2023-07-20T07:55:33;29.08;34.71
67005;HTU21D;53920;51.094;5.902;2023-07-20T07:57:59;27.80;37.15
67005;HTU21D;53920;51.094;5.902;2023-07-20T08:00:25;27.04;38.17
67005;HTU21D;53920;51.094;5.902;2023-07-20T08:02:51;26.92;38.38
67005;HTU21D;53920;51.094;5.902;2023-07-20T08:05:17;26.96;38.02
67005;HTU21D;53920;51.094;5.902;2023-07-20T08:07:43;26.60;38.88
67005;HTU21D;53920;51.094;5.902;2023-07-20T08:10:09;26.22;40.07
67005;HTU21D;53920;51.094;5.902;2023-07-20T08:12:35;25.69;41.57
67005;HTU21D;53920;51.094;5.902;2023-07-20T08:15:01;25.03;43.38
67005;HTU21D;53920;51.094;5.902;2023-07-20T08:17:27;24.57;44.73
67005;HTU21D;53920;51.094;5.902;2023-07-20T08:19:56;24.20;45.14
67005;HTU21D;53920;51.094;5.902;2023-07-20T08:22:22;24.86;43.64
67005;HTU21D;53920;51.094;5.902;2023-07-20T08:24:48;24.86;43.40
67005;HTU21D;53920;51.094;5.902;2023-07-20T08:27:14;25.63;41.97
67005;HTU21D;53920;51.094;5.902;2023-07-20T08:29:40;27.73;37.26
67005;HTU21D;53920;51.094;5.902;2023-07-20T08:32:06;29.38;33.78
67005;HTU21D;53920;51.094;5.902;2023-07-20T08:34:32;30.96;30.58
67005;HTU21D;53920;51.094;5.902;2023-07-20T08:36:58;31.81;28.82
67005;HTU21D;53920;51.094;5.902;2023-07-20T08:39:24;32.69;27.20
67005;HTU21D;53920;51.094;5.902;2023-07-20T08:41:51;32.90;26.42
67005;HTU21D;53920;51.094;5.902;2023-07-20T08:44:20;31.73;28.48
67005;HTU21D;53920;51.094;5.902;2023-07-20T08:46:47;32.42;27.34
67005;HTU21D;53920;51.094;5.902;2023-07-20T08:49:17;34.03;24.85
67005;HTU21D;53920;51.094;5.902;2023-07-20T08:51:46;34.66;23.43
67005;HTU21D;53920;51.094;5.902;2023-07-20T08:54:13;35.51;22.36
67005;HTU21D;53920;51.094;5.902;2023-07-20T08:56:40;35.68;21.76
67005;HTU21D;53920;51.094;5.902;2023-07-20T08:59:08;34.63;22.86
67005;HTU21D;53920;51.094;5.902;2023-07-20T09:01:36;32.93;25.18
67005;HTU21D;53920;51.094;5.902;2023-07-20T09:04:04;31.18;27.55
67005;HTU21D;53920;51.094;5.902;2023-07-20T09:06:32;30.31;29.12
67005;HTU21D;53920;51.094;5.902;2023-07-20T09:09:01;31.70;26.51
67005;HTU21D;53920;51.094;5.902;2023-07-20T09:11:27;32.93;24.72
67005;HTU21D;53920;51.094;5.902;2023-07-20T09:14:05;33.51;23.66
67005;HTU21D;53920;51.094;5.902;2023-07-20T09:16:31;34.85;21.31
67005;HTU21D;53920;51.094;5.902;2023-07-20T09:18:58;35.47;20.48
67005;HTU21D;53920;51.094;5.902;2023-07-20T09:21:28;36.36;19.51
67005;HTU21D;53920;51.094;5.902;2023-07-20T09:23:59;37.35;17.76
67005;HTU21D;53920;51.094;5.902;2023-07-20T09:26:25;38.03;16.34
67005;HTU21D;53920;51.094;5.902;2023-07-20T09:28:54;38.80;15.40
67005;HTU21D;53920;51.094;5.902;2023-07-20T09:31:22;38.95;15.73
67005;HTU21D;53920;51.094;5.902;2023-07-20T09:33:49;39.19;15.43
67005;HTU21D;53920;51.094;5.902;2023-07-20T09:36:17;39.45;14.87
67005;HTU21D;53920;51.094;5.902;2023-07-20T09:38:44;39.05;15.46
67005;HTU21D;53920;51.094;5.902;2023-07-20T09:41:14;38.09;16.39
67005;HTU21D;53920;51.094;5.902;2023-07-20T09:43:45;38.59;15.13
67005;HTU21D;53920;51.094;5.902;2023-07-20T09:46:11;38.41;14.04
67005;HTU21D;53920;51.094;5.902;2023-07-20T09:48:37;38.53;14.03
67005;HTU21D;53920;51.094;5.902;2023-07-20T09:51:04;38.34;14.77
67005;HTU21D;53920;51.094;5.902;2023-07-20T09:53:33;38.00;15.48
67005;HTU21D;53920;51.094;5.902;2023-07-20T09:55:59;36.82;17.25
67005;HTU21D;53920;51.094;5.902;2023-07-20T09:58:28;36.13;18.48
67005;HTU21D;53920;51.094;5.902;2023-07-20T10:00:57;34.57;20.70
67005;HTU21D;53920;51.094;5.902;2023-07-20T10:03:29;33.74;22.38
67005;HTU21D;53920;51.094;5.902;2023-07-20T10:06:05;34.36;21.37
67005;HTU21D;53920;51.094;5.902;2023-07-20T10:08:38;35.35;19.58
67005;HTU21D;53920;51.094;5.902;2023-07-20T10:11:07;36.71;17.94
67005;HTU21D;53920;51.094;5.902;2023-07-20T10:13:37;38.11;16.37
67005;HTU21D;53920;51.094;5.902;2023-07-20T10:16:10;38.28;15.90
67005;HTU21D;53920;51.094;5.902;2023-07-20T10:19:13;38.65;15.42
67005;HTU21D;53920;51.094;5.902;2023-07-20T10:21:48;38.35;15.06
67005;HTU21D;53920;51.094;5.902;2023-07-20T10:24:18;38.49;14.58
67005;HTU21D;53920;51.094;5.902;2023-07-20T10:26:44;38.03;15.32
67005;HTU21D;53920;51.094;5.902;2023-07-20T10:29:13;38.03;15.62
67005;HTU21D;53920;51.094;5.902;2023-07-20T10:31:39;37.27;16.37
67005;HTU21D;53920;51.094;5.902;2023-07-20T10:34:07;36.07;17.54
67005;HTU21D;53920;51.094;5.902;2023-07-20T10:36:44;34.67;19.75
67005;HTU21D;53920;51.094;5.902;2023-07-20T10:39:25;33.33;20.89
67005;HTU21D;53920;51.094;5.902;2023-07-20T10:42:02;31.81;22.78
67005;HTU21D;53920;51.094;5.902;2023-07-20T10:44:30;30.23;25.36
67005;HTU21D;53920;51.094;5.902;2023-07-20T10:47:00;30.20;25.88
67005;HTU21D;53920;51.094;5.902;2023-07-20T10:49:27;31.65;23.77
67005;HTU21D;53920;51.094;5.902;2023-07-20T10:52:05;31.74;23.23
67005;HTU21D;53920;51.094;5.902;2023-07-20T10:54:34;31.13;23.90
67005;HTU21D;53920;51.094;5.902;2023-07-20T10:57:30;32.60;21.44
67005;HTU21D;53920;51.094;5.902;2023-07-20T11:00:13;33.61;20.14
67005;HTU21D;53920;51.094;5.902;2023-07-20T11:02:47;34.62;18.85
67005;HTU21D;53920;51.094;5.902;2023-07-20T11:05:38;35.40;17.73
67005;HTU21D;53920;51.094;5.902;2023-07-20T11:08:12;36.00;17.53
67005;HTU21D;53920;51.094;5.902;2023-07-20T11:10:38;36.38;16.90
67005;HTU21D;53920;51.094;5.902;2023-07-20T11:13:19;36.23;17.09
67005;HTU21D;53920;51.094;5.902;2023-07-20T11:18:12;36.30;17.10
67005;HTU21D;53920;51.094;5.902;2023-07-20T11:20:39;34.97;18.30
67005;HTU21D;53920;51.094;5.902;2023-07-20T11:23:05;33.29;20.12
67005;HTU21D;53920;51.094;5.902;2023-07-20T11:25:39;32.14;21.69
67005;HTU21D;53920;51.094;5.902;2023-07-20T11:28:08;31.64;22.88
67005;HTU21D;53920;51.094;5.902;2023-07-20T11:30:38;31.43;22.98
67005;HTU21D;53920;51.094;5.902;2023-07-20T11:33:08;30.66;24.11
67005;HTU21D;53920;51.094;5.902;2023-07-20T11:35:42;30.52;24.78
67005;HTU21D;53920;51.094;5.902;2023-07-20T11:38:08;32.12;23.14
67005;HTU21D;53920;51.094;5.902;2023-07-20T11:40:34;32.52;22.58
67005;HTU21D;53920;51.094;5.902;2023-07-20T11:43:01;31.18;24.62
67005;HTU21D;53920;51.094;5.902;2023-07-20T11:45:26;31.49;24.29
67005;HTU21D;53920;51.094;5.902;2023-07-20T11:47:53;32.64;22.62
67005;HTU21D;53920;51.094;5.902;2023-07-20T11:50:19;32.35;23.15
67005;HTU21D;53920;51.094;5.902;2023-07-20T11:52:45;32.09;23.79
67005;HTU21D;53920;51.094;5.902;2023-07-20T11:55:11;32.34;22.92
67005;HTU21D;53920;51.094;5.902;2023-07-20T11:57:37;32.94;22.12
67005;HTU21D;53920;51.094;5.902;2023-07-20T12:00:05;33.65;20.72
67005;HTU21D;53920;51.094;5.902;2023-07-20T12:02:41;34.03;20.15
67005;HTU21D;53920;51.094;5.902;2023-07-20T12:05:07;34.75;19.19
67005;HTU21D;53920;51.094;5.902;2023-07-20T12:07:37;35.21;18.38
67005;HTU21D;53920;51.094;5.902;2023-07-20T12:10:09;34.67;18.94
67005;HTU21D;53920;51.094;5.902;2023-07-20T12:12:40;33.82;20.01
67005;HTU21D;53920;51.094;5.902;2023-07-20T12:15:17;32.67;21.39
67005;HTU21D;53920;51.094;5.902;2023-07-20T12:17:45;32.63;21.43
67005;HTU21D;53920;51.094;5.902;2023-07-20T12:20:12;32.12;22.14
67005;HTU21D;53920;51.094;5.902;2023-07-20T12:22:43;31.08;23.08
67005;HTU21D;53920;51.094;5.902;2023-07-20T12:25:09;30.55;24.16
67005;HTU21D;53920;51.094;5.902;2023-07-20T12:27:38;30.07;25.57
67005;HTU21D;53920;51.094;5.902;2023-07-20T12:30:06;29.71;26.06
67005;HTU21D;53920;51.094;5.902;2023-07-20T12:32:33;29.14;26.74
67005;HTU21D;53920;51.094;5.902;2023-07-20T12:34:59;28.78;27.61
67005;HTU21D;53920;51.094;5.902;2023-07-20T12:37:26;28.95;27.24
67005;HTU21D;53920;51.094;5.902;2023-07-20T12:39:52;29.34;26.48
67005;HTU21D;53920;51.094;5.902;2023-07-20T12:42:18;29.16;26.68
67005;HTU21D;53920;51.094;5.902;2023-07-20T12:44:44;28.98;26.89
67005;HTU21D;53920;51.094;5.902;2023-07-20T12:47:10;28.79;27.59
67005;HTU21D;53920;51.094;5.902;2023-07-20T12:49:36;28.52;28.15
67005;HTU21D;53920;51.094;5.902;2023-07-20T12:52:02;28.58;28.22
67005;HTU21D;53920;51.094;5.902;2023-07-20T12:54:28;28.67;28.32
67005;HTU21D;53920;51.094;5.902;2023-07-20T12:56:54;28.39;28.45
67005;HTU21D;53920;51.094;5.902;2023-07-20T12:59:20;28.59;28.81
67005;HTU21D;53920;51.094;5.902;2023-07-20T13:01:46;29.05;28.19
67005;HTU21D;53920;51.094;5.902;2023-07-20T13:04:12;29.23;27.62
67005;HTU21D;53920;51.094;5.902;2023-07-20T13:06:39;28.94;28.08
67005;HTU21D;53920;51.094;5.902;2023-07-20T13:09:05;28.52;28.55
67005;HTU21D;53920;51.094;5.902;2023-07-20T13:11:31;28.24;29.21
67005;HTU21D;53920;51.094;5.902;2023-07-20T13:13:56;28.76;28.18
67005;HTU21D;53920;51.094;5.902;2023-07-20T13:16:22;28.85;27.96
67005;HTU21D;53920;51.094;5.902;2023-07-20T13:18:57;28.91;28.40
67005;HTU21D;53920;51.094;5.902;2023-07-20T13:21:23;28.90;27.67
67005;HTU21D;53920;51.094;5.902;2023-07-20T13:23:50;29.03;28.78
67005;HTU21D;53920;51.094;5.902;2023-07-20T13:26:16;28.89;27.84
67005;HTU21D;53920;51.094;5.902;2023-07-20T13:28:42;28.34;27.82
67005;HTU21D;53920;51.094;5.902;2023-07-20T13:31:08;27.94;28.36
67005;HTU21D;53920;51.094;5.902;2023-07-20T13:33:36;27.75;28.77
67005;HTU21D;53920;51.094;5.902;2023-07-20T13:36:02;27.50;29.55
67005;HTU21D;53920;51.094;5.902;2023-07-20T13:38:28;27.13;30.63
67005;HTU21D;53920;51.094;5.902;2023-07-20T13:40:53;27.01;31.61
67005;HTU21D;53920;51.094;5.902;2023-07-20T13:43:19;26.96;31.33
67005;HTU21D;53920;51.094;5.902;2023-07-20T13:45:45;27.01;31.19
67005;HTU21D;53920;51.094;5.902;2023-07-20T13:48:11;27.22;31.02
67005;HTU21D;53920;51.094;5.902;2023-07-20T13:50:36;27.75;30.43
67005;HTU21D;53920;51.094;5.902;2023-07-20T13:53:02;28.56;28.77
67005;HTU21D;53920;51.094;5.902;2023-07-20T13:55:28;28.67;28.37
67005;HTU21D;53920;51.094;5.902;2023-07-20T13:57:56;28.57;28.35
67005;HTU21D;53920;51.094;5.902;2023-07-20T14:00:22;28.17;28.74
67005;HTU21D;53920;51.094;5.902;2023-07-20T14:02:48;27.95;29.20
67005;HTU21D;53920;51.094;5.902;2023-07-20T14:05:14;27.86;29.53
67005;HTU21D;53920;51.094;5.902;2023-07-20T14:07:44;27.79;29.51
67005;HTU21D;53920;51.094;5.902;2023-07-20T14:10:10;27.85;29.61
67005;HTU21D;53920;51.094;5.902;2023-07-20T14:12:36;28.04;29.14
67005;HTU21D;53920;51.094;5.902;2023-07-20T14:15:02;28.15;28.88
67005;HTU21D;53920;51.094;5.902;2023-07-20T14:17:29;28.25;28.42
67005;HTU21D;53920;51.094;5.902;2023-07-20T14:19:55;28.39;28.39
67005;HTU21D;53920;51.094;5.902;2023-07-20T14:22:21;28.26;28.39
67005;HTU21D;53920;51.094;5.902;2023-07-20T14:24:46;28.15;28.79
67005;HTU21D;53920;51.094;5.902;2023-07-20T14:27:12;27.99;28.76
67005;HTU21D;53920;51.094;5.902;2023-07-20T14:29:39;27.98;27.92
67005;HTU21D;53920;51.094;5.902;2023-07-20T14:32:05;28.26;27.90
67005;HTU21D;53920;51.094;5.902;2023-07-20T14:34:33;28.67;27.86
67005;HTU21D;53920;51.094;5.902;2023-07-20T14:36:59;29.11;26.82
67005;HTU21D;53920;51.094;5.902;2023-07-20T14:39:25;29.72;25.89
67005;HTU21D;53920;51.094;5.902;2023-07-20T14:41:52;30.60;24.72
67005;HTU21D;53920;51.094;5.902;2023-07-20T14:44:18;31.27;23.51
67005;HTU21D;53920;51.094;5.902;2023-07-20T14:46:46;31.23;23.79
67005;HTU21D;53920;51.094;5.902;2023-07-20T14:49:12;31.01;24.08
67005;HTU21D;53920;51.094;5.902;2023-07-20T14:51:37;30.74;24.21
67005;HTU21D;53920;51.094;5.902;2023-07-20T14:54:09;30.55;24.61
67005;HTU21D;53920;51.094;5.902;2023-07-20T14:56:37;30.35;24.25
67005;HTU21D;53920;51.094;5.902;2023-07-20T14:59:03;30.10;24.36
67005;HTU21D;53920;51.094;5.902;2023-07-20T15:01:31;29.81;23.89
67005;HTU21D;53920;51.094;5.902;2023-07-20T15:03:58;29.67;24.29
67005;HTU21D;53920;51.094;5.902;2023-07-20T15:06:26;29.65;24.06
67005;HTU21D;53920;51.094;5.902;2023-07-20T15:08:52;29.48;24.14
67005;HTU21D;53920;51.094;5.902;2023-07-20T15:11:18;29.33;23.46
67005;HTU21D;53920;51.094;5.902;2023-07-20T15:13:45;29.27;23.41
67005;HTU21D;53920;51.094;5.902;2023-07-20T15:16:11;29.41;24.53
67005;HTU21D;53920;51.094;5.902;2023-07-20T15:18:37;29.48;23.69
67005;HTU21D;53920;51.094;5.902;2023-07-20T15:21:02;29.46;24.30
67005;HTU21D;53920;51.094;5.902;2023-07-20T15:23:28;29.32;24.46
67005;HTU21D;53920;51.094;5.902;2023-07-20T15:25:54;29.28;24.41
67005;HTU21D;53920;51.094;5.902;2023-07-20T15:28:20;29.14;23.66